createdAt,value
2023-01-22T00:00:28.162Z,6.13
2023-01-22T00:03:35.620Z,7.40
2023-01-22T00:06:38.635Z,7.23
2023-01-22T00:09:44.685Z,6.57
2023-01-22T00:12:47.753Z,7.43
2023-01-22T00:15:52.993Z,6.97
2023-01-22T00:19:00.972Z,6.90
2023-01-22T00:22:04.003Z,7.27
2023-01-22T00:25:08.735Z,7.90
2023-01-22T00:28:12.710Z,9.53
2023-01-22T00:31:19.553Z,8.23
2023-01-22T00:34:28.373Z,8.87
2023-01-22T00:37:33.890Z,8.83
2023-01-22T00:40:37.075Z,8.80
2023-01-22T00:43:40.558Z,8.03
2023-01-22T00:46:43.921Z,8.53
2023-01-22T00:49:48.712Z,8.00
2023-01-22T00:52:59.257Z,8.60
2023-01-22T00:56:04.119Z,9.07
2023-01-22T00:59:10.617Z,7.20
2023-01-22T01:02:14.024Z,8.33
2023-01-22T01:05:23.681Z,7.60
2023-01-22T01:08:30.366Z,7.70
2023-01-22T01:11:33.570Z,7.57
2023-01-22T01:14:36.628Z,8.00
2023-01-22T01:17:39.779Z,8.13
2023-01-22T01:20:44.165Z,8.50
2023-01-22T01:23:49.439Z,9.30
2023-01-22T01:26:53.535Z,9.00
2023-01-22T01:29:56.764Z,9.43
2023-01-22T01:32:59.785Z,8.30
2023-01-22T01:36:12.700Z,9.27
2023-01-22T01:39:16.531Z,8.63
2023-01-22T01:42:29.519Z,8.50
2023-01-22T01:45:34.448Z,8.93
2023-01-22T01:48:40.910Z,11.23
2023-01-22T01:51:45.440Z,8.50
2023-01-22T01:54:53.714Z,8.47
2023-01-22T01:58:01.976Z,7.70
2023-01-22T02:01:12.308Z,7.70
2023-01-22T02:04:16.134Z,7.37
2023-01-22T02:07:21.380Z,7.03
2023-01-22T02:10:24.646Z,7.30
2023-01-22T02:13:33.114Z,7.73
2023-01-22T02:16:36.223Z,6.50
2023-01-22T02:19:41.259Z,6.47
2023-01-22T02:22:45.619Z,6.17
2023-01-22T02:25:48.764Z,6.90
2023-01-22T02:28:52.158Z,6.60
2023-01-22T02:31:55.493Z,6.70
2023-01-22T02:34:58.630Z,6.60
2023-01-22T02:38:09.608Z,6.87
2023-01-22T02:41:13.524Z,6.63
2023-01-22T02:44:16.554Z,6.73
2023-01-22T02:47:22.010Z,6.83
2023-01-22T02:50:25.724Z,7.23
2023-01-22T02:53:30.756Z,6.77
2023-01-22T02:56:34.708Z,6.80
2023-01-22T02:59:37.924Z,6.20
2023-01-22T03:02:41.019Z,6.13
2023-01-22T03:05:51.881Z,5.57
2023-01-22T03:08:58.336Z,6.17
2023-01-22T03:12:01.481Z,5.90
2023-01-22T03:15:27.317Z,5.70
2023-01-22T03:18:50.969Z,6.07
2023-01-22T03:21:55.036Z,5.67
2023-01-22T03:25:01.270Z,6.07
2023-01-22T03:28:16.602Z,6.60
2023-01-22T03:31:23.885Z,5.73
2023-01-22T03:34:28.016Z,6.30
2023-01-22T03:37:33.126Z,6.10
2023-01-22T03:40:37.803Z,5.97
2023-01-22T03:43:41.647Z,6.13
2023-01-22T03:46:46.233Z,6.80
2023-01-22T03:49:49.987Z,5.93
2023-01-22T03:52:53.140Z,7.17
2023-01-22T03:56:03.962Z,6.57
2023-01-22T03:59:09.060Z,6.77
2023-01-22T04:02:12.563Z,6.47
2023-01-22T04:05:28.540Z,7.33
2023-01-22T04:08:34.464Z,6.17
2023-01-22T04:11:39.544Z,7.00
2023-01-22T04:14:48.287Z,7.20
2023-01-22T04:17:51.764Z,6.73
2023-01-22T04:21:08.819Z,6.50
2023-01-22T04:24:19.050Z,7.13
2023-01-22T04:27:26.140Z,6.83
2023-01-22T04:30:33.753Z,7.10
2023-01-22T04:33:58.042Z,7.43
2023-01-22T04:37:03.878Z,7.60
2023-01-22T04:40:12.018Z,7.13
2023-01-22T04:43:16.575Z,6.97
2023-01-22T04:46:20.057Z,7.10
2023-01-22T04:49:23.273Z,7.17
2023-01-22T04:52:27.922Z,7.70
2023-01-22T04:55:31.893Z,7.73
2023-01-22T04:58:40.715Z,7.87
2023-01-22T05:01:44.260Z,7.20
2023-01-22T05:04:47.642Z,7.83
2023-01-22T05:07:50.841Z,7.30
2023-01-22T05:10:53.796Z,7.67
2023-01-22T05:14:03.510Z,8.17
2023-01-22T05:17:07.137Z,8.43
2023-01-22T05:20:11.828Z,8.37
2023-01-22T05:23:14.870Z,8.03
2023-01-22T05:26:19.239Z,9.63
2023-01-22T05:29:31.643Z,9.50
2023-01-22T05:32:46.494Z,9.50
2023-01-22T05:35:59.646Z,8.40
2023-01-22T05:39:02.974Z,10.30
2023-01-22T05:42:07.063Z,9.63
2023-01-22T05:45:12.756Z,9.23
2023-01-22T05:48:36.051Z,10.00
2023-01-22T05:51:47.934Z,9.43
2023-01-22T05:55:03.427Z,10.03
2023-01-22T05:58:13.447Z,9.93
2023-01-22T06:01:23.246Z,10.17
2023-01-22T06:04:28.513Z,10.40
2023-01-22T06:07:32.149Z,10.13
2023-01-22T06:10:36.717Z,10.83
2023-01-22T06:13:41.508Z,10.67
2023-01-22T06:16:54.128Z,10.67
2023-01-22T06:20:12.495Z,10.80
2023-01-22T06:23:18.899Z,11.87
2023-01-22T06:26:21.879Z,11.13
2023-01-22T06:29:25.238Z,10.23
2023-01-22T06:32:30.423Z,10.17
2023-01-22T06:35:35.653Z,10.47
2023-01-22T06:38:39.308Z,10.90
2023-01-22T06:41:44.630Z,11.83
2023-01-22T06:44:51.645Z,11.40
2023-01-22T06:47:57.689Z,10.47
2023-01-22T06:51:01.795Z,11.73
2023-01-22T06:54:08.603Z,11.80
2023-01-22T06:57:11.746Z,11.10
2023-01-22T07:00:17.403Z,11.10
2023-01-22T07:03:22.418Z,12.23
2023-01-22T07:06:25.476Z,11.83
2023-01-22T07:09:28.407Z,11.53
2023-01-22T07:12:31.580Z,12.23
2023-01-22T07:15:34.767Z,10.57
2023-01-22T07:18:39.056Z,10.80
2023-01-22T07:21:44.701Z,11.93
2023-01-22T07:24:47.646Z,11.37
2023-01-22T07:27:50.650Z,11.40
2023-01-22T07:30:56.497Z,11.63
2023-01-22T07:34:04.460Z,11.63
2023-01-22T07:37:07.512Z,11.93
2023-01-22T07:40:12.552Z,10.97
2023-01-22T07:43:16.650Z,10.27
2023-01-22T07:46:19.997Z,10.40
2023-01-22T07:49:24.359Z,9.93
2023-01-22T07:52:27.403Z,10.37
2023-01-22T07:55:32.998Z,10.97
2023-01-22T07:58:36.025Z,10.13
2023-01-22T08:01:39.035Z,10.40
2023-01-22T08:04:43.955Z,10.67
2023-01-22T08:07:46.906Z,9.70
2023-01-22T08:10:53.324Z,9.60
2023-01-22T08:13:58.633Z,10.27
2023-01-22T08:17:01.643Z,10.00
2023-01-22T08:20:10.853Z,10.37
2023-01-22T08:23:14.003Z,10.00
2023-01-22T08:26:17.019Z,11.43
2023-01-22T08:29:20.242Z,10.73
2023-01-22T08:32:23.403Z,10.63
2023-01-22T08:35:27.953Z,10.80
2023-01-22T08:38:30.954Z,11.00
2023-01-22T08:41:33.983Z,11.17
2023-01-22T08:44:36.997Z,11.17
2023-01-22T08:47:41.936Z,11.10
2023-01-22T08:50:46.523Z,11.03
2023-01-22T08:53:50.058Z,11.83
2023-01-22T08:56:53.130Z,11.27
2023-01-22T09:00:01.268Z,11.23
2023-01-22T09:03:06.561Z,12.40
2023-01-22T09:06:11.141Z,11.33
2023-01-22T09:09:14.336Z,12.10
2023-01-22T09:12:17.478Z,11.90
2023-01-22T09:15:20.760Z,12.80
2023-01-22T09:18:23.739Z,13.17
2023-01-22T09:21:28.073Z,12.20
2023-01-22T09:24:31.070Z,13.10
2023-01-22T09:27:34.099Z,11.90
2023-01-22T09:30:39.457Z,12.53
2023-01-22T09:33:51.252Z,11.80
2023-01-22T09:36:56.135Z,13.30
2023-01-22T09:39:59.212Z,11.63
2023-01-22T09:43:07.543Z,13.40
2023-01-22T09:46:19.187Z,12.30
2023-01-22T09:49:27.067Z,12.00
2023-01-22T09:52:35.883Z,11.97
2023-01-22T09:55:46.002Z,11.33
2023-01-22T09:58:53.507Z,12.87
2023-01-22T10:02:00.024Z,11.77
2023-01-22T10:05:07.420Z,13.70
2023-01-22T10:08:17.299Z,12.47
2023-01-22T10:11:20.506Z,12.77
2023-01-22T10:14:29.461Z,12.60
2023-01-22T10:17:47.253Z,13.27
2023-01-22T10:20:54.172Z,12.90
2023-01-22T10:24:01.102Z,13.70
2023-01-22T10:27:13.536Z,12.27
2023-01-22T10:30:24.837Z,13.60
2023-01-22T10:33:29.586Z,13.03
2023-01-22T10:36:33.120Z,12.50
2023-01-22T10:39:50.650Z,13.57
2023-01-22T10:43:12.876Z,12.90
2023-01-22T10:46:21.503Z,12.80
2023-01-22T10:49:27.965Z,13.83
2023-01-22T10:52:37.425Z,13.13
2023-01-22T10:55:43.981Z,12.70
2023-01-22T10:58:49.222Z,13.33
2023-01-22T11:01:59.519Z,14.80
2023-01-22T11:05:17.243Z,14.20
2023-01-22T11:08:22.059Z,13.20
2023-01-22T11:11:37.843Z,14.23
2023-01-22T11:14:41.088Z,14.30
2023-01-22T11:17:49.889Z,15.03
2023-01-22T11:20:56.299Z,14.77
2023-01-22T11:24:05.516Z,15.10
2023-01-22T11:27:32.564Z,15.50
2023-01-22T11:31:06.299Z,13.57
2023-01-22T11:34:29.240Z,14.30
2023-01-22T11:37:51.989Z,15.93
2023-01-22T11:41:17.592Z,13.60
2023-01-22T11:44:40.513Z,13.80
2023-01-22T11:48:09.774Z,14.07
2023-01-22T11:51:23.681Z,15.80
2023-01-22T11:54:43.509Z,13.63
2023-01-22T11:57:55.017Z,13.77
2023-01-22T12:01:20.569Z,14.00
2023-01-22T12:04:43.449Z,13.80
2023-01-22T12:08:12.824Z,14.07
2023-01-22T12:11:32.433Z,14.70
2023-01-22T12:15:00.422Z,15.30
2023-01-22T12:19:00.758Z,14.07
2023-01-22T12:22:10.435Z,13.00
2023-01-22T12:25:31.515Z,13.00
2023-01-22T12:28:47.896Z,13.87
2023-01-22T12:31:57.356Z,13.20
2023-01-22T12:35:15.179Z,13.20
2023-01-22T12:38:43.829Z,13.40
2023-01-22T12:42:01.921Z,14.23
2023-01-22T12:45:18.804Z,13.97
2023-01-22T12:48:28.828Z,13.57
2023-01-22T12:51:40.459Z,14.97
2023-01-22T12:54:43.525Z,14.53
2023-01-22T12:57:46.885Z,15.47
2023-01-22T13:01:02.846Z,15.63
2023-01-22T13:04:12.548Z,14.57
2023-01-22T13:07:24.798Z,14.93
2023-01-22T13:10:33.141Z,14.77
2023-01-22T13:13:43.957Z,14.20
2023-01-22T13:16:59.878Z,15.00
2023-01-22T13:20:14.763Z,15.67
2023-01-22T13:23:21.620Z,15.27
2023-01-22T13:26:29.480Z,15.37
2023-01-22T13:29:37.338Z,15.27
2023-01-22T13:32:43.661Z,15.00
2023-01-22T13:35:48.013Z,15.73
2023-01-22T13:38:59.271Z,16.07
2023-01-22T13:42:07.329Z,16.47
2023-01-22T13:45:19.087Z,15.33
2023-01-22T13:48:25.222Z,15.73
2023-01-22T13:51:28.460Z,16.53
2023-01-22T13:54:36.490Z,17.03
2023-01-22T13:57:46.282Z,17.70
2023-01-22T14:00:53.785Z,16.70
2023-01-22T14:04:04.545Z,17.37
2023-01-22T14:07:07.985Z,18.23
2023-01-22T14:10:18.628Z,18.97
2023-01-22T14:13:21.813Z,17.90
2023-01-22T14:16:24.912Z,17.87
2023-01-22T14:19:29.067Z,17.17
2023-01-22T14:22:32.117Z,17.77
2023-01-22T14:25:39.641Z,19.03
2023-01-22T14:28:42.860Z,18.13
2023-01-22T14:31:45.927Z,18.67
2023-01-22T14:34:50.960Z,18.63
2023-01-22T14:37:55.512Z,18.53
2023-01-22T14:41:00.220Z,20.40
2023-01-22T14:44:04.076Z,18.77
2023-01-22T14:47:09.379Z,19.00
2023-01-22T14:50:13.103Z,19.77
2023-01-22T14:53:18.051Z,18.90
2023-01-22T14:56:23.076Z,19.03
2023-01-22T14:59:26.671Z,18.33
2023-01-22T15:02:30.142Z,18.17
2023-01-22T15:05:35.478Z,19.57
2023-01-22T15:08:40.780Z,19.67
2023-01-22T15:11:45.539Z,19.97
2023-01-22T15:14:48.571Z,17.97
2023-01-22T15:17:51.911Z,18.53
2023-01-22T15:20:56.056Z,18.73
2023-01-22T15:24:01.448Z,19.20
2023-01-22T15:27:08.618Z,19.43
2023-01-22T15:35:37.523Z,18.60
2023-01-22T15:38:43.291Z,19.03
2023-01-22T15:41:47.233Z,20.70
2023-01-22T15:44:51.542Z,19.47
2023-01-22T15:47:54.871Z,18.90
2023-01-22T15:51:08.593Z,18.50
2023-01-22T15:54:16.129Z,19.87
2023-01-22T15:57:19.865Z,18.80
2023-01-22T16:00:27.923Z,19.13
2023-01-22T16:03:30.897Z,20.73
2023-01-22T16:06:35.559Z,20.57
2023-01-22T16:09:41.506Z,21.73
2023-01-22T16:12:44.731Z,21.07
2023-01-22T16:15:58.031Z,19.33
2023-01-22T16:19:03.500Z,19.37
2023-01-22T16:22:06.503Z,20.10
2023-01-22T16:25:10.421Z,20.77
2023-01-22T16:28:13.422Z,20.77
2023-01-22T16:31:19.871Z,19.90
2023-01-22T16:34:23.769Z,19.50
2023-01-22T16:37:26.966Z,20.17
2023-01-22T16:40:30.007Z,19.57
2023-01-22T16:43:34.320Z,18.40
2023-01-22T16:46:42.047Z,19.30
2023-01-22T16:49:47.110Z,19.43
2023-01-22T16:52:50.094Z,19.93
2023-01-22T16:55:53.165Z,18.40
2023-01-22T16:58:56.226Z,18.40
2023-01-22T17:02:03.021Z,19.13
2023-01-22T17:05:12.827Z,18.33
2023-01-22T17:08:16.279Z,18.23
2023-01-22T17:11:19.742Z,19.03
2023-01-22T17:14:27.107Z,18.53
2023-01-22T17:18:19.857Z,19.87
2023-01-22T17:21:23.437Z,18.27
2023-01-22T17:24:27.862Z,19.60
2023-01-22T17:27:32.198Z,17.90
2023-01-22T17:30:35.735Z,19.60
2023-01-22T17:33:47.096Z,17.97
2023-01-22T17:36:51.267Z,18.80
2023-01-22T17:39:54.475Z,16.60
2023-01-22T17:42:57.880Z,18.70
2023-01-22T17:46:01.076Z,19.03
2023-01-22T17:49:06.994Z,20.33
2023-01-22T17:52:11.582Z,19.17
2023-01-22T17:55:14.794Z,18.40
2023-01-22T17:58:18.764Z,18.27
2023-01-22T18:01:25.701Z,19.27
2023-01-22T18:04:32.979Z,20.67
2023-01-22T18:07:36.104Z,18.67
2023-01-22T18:10:39.443Z,20.60
2023-01-22T18:13:43.261Z,20.77
2023-01-22T18:16:46.639Z,19.40
2023-01-22T18:19:51.167Z,20.43
2023-01-22T18:22:54.709Z,19.10
2023-01-22T18:25:58.391Z,20.37
2023-01-22T18:29:01.631Z,20.13
2023-01-22T18:32:05.467Z,21.43
2023-01-22T18:35:11.219Z,19.03
2023-01-22T18:38:14.692Z,20.83
2023-01-22T18:41:30.012Z,20.83
2023-01-22T18:44:33.238Z,19.30
2023-01-22T18:47:37.130Z,20.03
2023-01-22T18:50:44.609Z,20.00
2023-01-22T18:53:47.754Z,19.00
2023-01-22T18:56:51.255Z,21.60
2023-01-22T18:59:54.787Z,19.87
2023-01-22T19:02:59.118Z,20.53
2023-01-22T19:06:13.321Z,19.57
2023-01-22T19:09:17.156Z,19.23
2023-01-22T19:12:20.564Z,20.73
2023-01-22T19:15:24.617Z,21.23
2023-01-22T19:18:29.459Z,19.10
2023-01-22T19:21:36.177Z,18.97
2023-01-22T19:24:39.176Z,20.47
2023-01-22T19:27:42.489Z,19.00
2023-01-22T19:30:47.883Z,18.40
2023-01-22T19:33:54.597Z,17.00
2023-01-22T19:37:02.373Z,17.10
2023-01-22T19:40:09.018Z,17.37
2023-01-22T19:43:13.783Z,17.77
2023-01-22T19:46:19.326Z,17.83
2023-01-22T19:49:22.460Z,16.80
2023-01-22T19:52:28.021Z,16.73
2023-01-22T19:55:31.177Z,18.27
2023-01-22T19:58:34.535Z,17.10
2023-01-22T20:01:38.045Z,17.53
2023-01-22T20:04:41.926Z,16.63
2023-01-22T20:07:46.320Z,17.10
2023-01-22T20:10:51.020Z,17.33
2023-01-22T20:13:54.988Z,17.87
2023-01-22T20:17:00.033Z,17.30
2023-01-22T20:20:07.902Z,17.10
2023-01-22T20:23:17.358Z,16.60
2023-01-22T20:26:22.764Z,17.63
2023-01-22T20:29:29.229Z,18.37
2023-01-22T20:32:32.677Z,18.97
2023-01-22T20:35:35.742Z,17.80
2023-01-22T20:38:41.631Z,17.97
2023-01-22T20:41:45.710Z,18.33
2023-01-22T20:44:50.000Z,17.37
2023-01-22T20:47:53.364Z,16.83
2023-01-22T20:50:56.750Z,17.20
2023-01-22T20:54:01.425Z,18.80
2023-01-22T20:57:06.591Z,17.53
2023-01-22T21:00:12.737Z,18.10
2023-01-22T21:03:15.801Z,18.40
2023-01-22T21:06:21.377Z,17.90
2023-01-22T21:09:27.973Z,19.43
2023-01-22T21:12:31.006Z,18.83
2023-01-22T21:15:34.431Z,18.07
2023-01-22T21:18:41.370Z,17.73
2023-01-22T21:21:44.984Z,17.90
2023-01-22T21:24:49.744Z,19.13
2023-01-22T21:27:53.291Z,19.23
2023-01-22T21:31:05.272Z,19.07
2023-01-22T21:34:10.603Z,20.17
2023-01-22T21:37:14.092Z,18.93
2023-01-22T21:40:19.490Z,20.70
2023-01-22T21:43:40.339Z,18.77
2023-01-22T21:46:45.976Z,19.83
2023-01-22T21:49:52.029Z,19.50
2023-01-22T21:52:55.310Z,19.73
2023-01-22T21:55:59.674Z,20.70
2023-01-22T21:59:02.727Z,18.50
2023-01-22T22:02:06.165Z,21.37
2023-01-22T22:05:12.037Z,20.07
2023-01-22T22:08:16.288Z,19.17
2023-01-22T22:11:20.788Z,20.33
2023-01-22T22:14:25.000Z,20.50
2023-01-22T22:17:28.009Z,21.30
2023-01-22T22:20:32.508Z,20.93
2023-01-22T22:23:36.639Z,21.20
2023-01-22T22:26:41.455Z,19.83
2023-01-22T22:29:44.441Z,19.97
2023-01-22T22:32:47.975Z,18.77
2023-01-22T22:35:51.050Z,19.30
2023-01-22T22:38:54.907Z,19.80
2023-01-22T22:41:59.263Z,20.27
2023-01-22T22:45:02.252Z,21.20
2023-01-22T22:48:06.791Z,20.40
2023-01-22T22:51:15.046Z,20.43
2023-01-22T22:54:20.031Z,20.43
2023-01-22T22:57:26.719Z,19.57
2023-01-22T23:00:29.945Z,19.57
2023-01-22T23:03:33.703Z,19.27
2023-01-22T23:06:37.983Z,20.13
2023-01-22T23:09:49.588Z,20.63
2023-01-22T23:12:54.191Z,19.83
2023-01-22T23:16:01.560Z,20.17
2023-01-22T23:19:08.198Z,20.47
2023-01-22T23:22:14.674Z,20.80
2023-01-22T23:25:19.723Z,20.57
2023-01-22T23:28:24.167Z,21.07
2023-01-22T23:31:28.205Z,20.17
2023-01-22T23:34:31.284Z,19.53
2023-01-22T23:37:34.567Z,19.57
2023-01-22T23:40:37.798Z,20.77
2023-01-22T23:43:42.504Z,21.70
2023-01-22T23:46:45.694Z,20.83
2023-01-22T23:49:51.923Z,22.63
2023-01-22T23:52:57.732Z,20.90
2023-01-22T23:56:01.875Z,21.17
2023-01-22T23:59:10.547Z,21.53
